sensor_id;sensor_type;location;lat;lon;timestamp;temperature;humidity
19385;DHT22;9828;54.122;17.974;2023-12-04T00:05:14;-0.20;1.00
19385;DHT22;9828;54.122;17.974;2023-12-04T00:10:35;-0.10;1.00
19385;DHT22;9828;54.122;17.974;2023-12-04T00:15:56;-0.10;1.00
19385;DHT22;9828;54.122;17.974;2023-12-04T00:21:18;-0.10;99.90
19385;DHT22;9828;54.122;17.974;2023-12-04T00:26:39;-0.10;99.90
19385;DHT22;9828;54.122;17.974;2023-12-04T00:32:00;-0.10;1.00
19385;DHT22;9828;54.122;17.974;2023-12-04T00:37:21;-0.10;1.00
19385;DHT22;9828;54.122;17.974;2023-12-04T00:42:43;-0.10;99.90
19385;DHT22;9828;54.122;17.974;2023-12-04T00:48:04;-0.20;1.00
19385;DHT22;9828;54.122;17.974;2023-12-04T00:53:25;-0.20;1.00
19385;DHT22;9828;54.122;17.974;2023-12-04T00:58:46;-0.20;1.00
19385;DHT22;9828;54.122;17.974;2023-12-04T01:04:08;-0.30;1.00
19385;DHT22;9828;54.122;17.974;2023-12-04T01:09:29;-0.30;1.00
19385;DHT22;9828;54.122;17.974;2023-12-04T01:14:50;-0.30;1.00
19385;DHT22;9828;54.122;17.974;2023-12-04T01:20:12;-0.40;99.90
19385;DHT22;9828;54.122;17.974;2023-12-04T01:25:34;-0.40;1.00
19385;DHT22;9828;54.122;17.974;2023-12-04T01:30:56;-0.40;99.90
19385;DHT22;9828;54.122;17.974;2023-12-04T01:36:17;-0.40;99.90
19385;DHT22;9828;54.122;17.974;2023-12-04T01:41:39;-0.50;99.90
19385;DHT22;9828;54.122;17.974;2023-12-04T01:47:02;-0.50;1.00
19385;DHT22;9828;54.122;17.974;2023-12-04T01:52:23;-0.60;99.90
19385;DHT22;9828;54.122;17.974;2023-12-04T01:57:45;-0.70;1.00
19385;DHT22;9828;54.122;17.974;2023-12-04T02:03:08;-0.70;6.70
19385;DHT22;9828;54.122;17.974;2023-12-04T02:08:29;-0.80;1.00
19385;DHT22;9828;54.122;17.974;2023-12-04T02:13:51;-1.00;99.90
19385;DHT22;9828;54.122;17.974;2023-12-04T02:19:12;-1.20;1.00
19385;DHT22;9828;54.122;17.974;2023-12-04T02:24:33;-1.30;99.90
19385;DHT22;9828;54.122;17.974;2023-12-04T02:29:59;-1.50;99.90
19385;DHT22;9828;54.122;17.974;2023-12-04T02:35:23;-1.50;99.90
19385;DHT22;9828;54.122;17.974;2023-12-04T02:40:47;-1.50;99.90
19385;DHT22;9828;54.122;17.974;2023-12-04T02:46:08;-1.50;99.90
19385;DHT22;9828;54.122;17.974;2023-12-04T02:51:30;-1.40;1.00
19385;DHT22;9828;54.122;17.974;2023-12-04T02:56:51;-1.40;1.00
19385;DHT22;9828;54.122;17.974;2023-12-04T03:02:12;-1.30;1.00
19385;DHT22;9828;54.122;17.974;2023-12-04T03:07:33;-1.40;1.00
19385;DHT22;9828;54.122;17.974;2023-12-04T03:12:54;-1.50;1.00
19385;DHT22;9828;54.122;17.974;2023-12-04T03:18:15;-1.60;99.90
19385;DHT22;9828;54.122;17.974;2023-12-04T03:23:37;-1.70;99.90
19385;DHT22;9828;54.122;17.974;2023-12-04T03:28:58;-1.90;1.00
19385;DHT22;9828;54.122;17.974;2023-12-04T03:34:19;-1.90;1.00
19385;DHT22;9828;54.122;17.974;2023-12-04T03:39:40;-1.90;1.00
19385;DHT22;9828;54.122;17.974;2023-12-04T03:45:02;-2.00;99.90
19385;DHT22;9828;54.122;17.974;2023-12-04T03:50:23;-2.00;1.00
19385;DHT22;9828;54.122;17.974;2023-12-04T03:55:44;-2.00;99.90
19385;DHT22;9828;54.122;17.974;2023-12-04T04:01:05;-1.80;1.00
19385;DHT22;9828;54.122;17.974;2023-12-04T04:06:27;-1.60;99.90
19385;DHT22;9828;54.122;17.974;2023-12-04T04:11:48;-1.50;99.90
19385;DHT22;9828;54.122;17.974;2023-12-04T04:17:09;-1.40;1.00
19385;DHT22;9828;54.122;17.974;2023-12-04T04:22:31;-1.20;99.90
19385;DHT22;9828;54.122;17.974;2023-12-04T04:27:55;-1.30;1.00
19385;DHT22;9828;54.122;17.974;2023-12-04T04:33:16;-1.20;1.00
19385;DHT22;9828;54.122;17.974;2023-12-04T04:38:39;-1.20;99.90
19385;DHT22;9828;54.122;17.974;2023-12-04T04:44:01;-1.20;99.90
19385;DHT22;9828;54.122;17.974;2023-12-04T04:49:22;-1.20;90.40
19385;DHT22;9828;54.122;17.974;2023-12-04T04:54:43;-1.20;1.00
19385;DHT22;9828;54.122;17.974;2023-12-04T05:00:05;-1.30;1.00
19385;DHT22;9828;54.122;17.974;2023-12-04T05:05:26;-1.20;99.90
19385;DHT22;9828;54.122;17.974;2023-12-04T05:10:48;-1.20;99.90
19385;DHT22;9828;54.122;17.974;2023-12-04T05:16:09;-1.10;1.00
19385;DHT22;9828;54.122;17.974;2023-12-04T05:21:31;-1.00;99.90
19385;DHT22;9828;54.122;17.974;2023-12-04T05:26:52;-1.00;1.00
19385;DHT22;9828;54.122;17.974;2023-12-04T05:32:13;-1.00;99.90
19385;DHT22;9828;54.122;17.974;2023-12-04T05:37:34;-0.90;99.90
19385;DHT22;9828;54.122;17.974;2023-12-04T05:42:56;-0.90;1.00
19385;DHT22;9828;54.122;17.974;2023-12-04T05:48:17;-0.90;92.30
19385;DHT22;9828;54.122;17.974;2023-12-04T05:53:38;-0.80;99.90
19385;DHT22;9828;54.122;17.974;2023-12-04T05:59:00;-0.90;1.00
19385;DHT22;9828;54.122;17.974;2023-12-04T06:04:21;-0.80;99.90
19385;DHT22;9828;54.122;17.974;2023-12-04T06:09:42;-0.70;99.90
19385;DHT22;9828;54.122;17.974;2023-12-04T06:15:04;-0.60;99.90
19385;DHT22;9828;54.122;17.974;2023-12-04T06:20:26;-0.50;99.90
19385;DHT22;9828;54.122;17.974;2023-12-04T06:25:47;-0.50;1.00
19385;DHT22;9828;54.122;17.974;2023-12-04T06:31:09;-0.50;99.90
19385;DHT22;9828;54.122;17.974;2023-12-04T06:36:32;-0.50;99.90
19385;DHT22;9828;54.122;17.974;2023-12-04T06:41:55;-0.50;1.00
19385;DHT22;9828;54.122;17.974;2023-12-04T06:47:19;-0.50;1.00
19385;DHT22;9828;54.122;17.974;2023-12-04T06:52:43;-0.50;99.90
19385;DHT22;9828;54.122;17.974;2023-12-04T06:58:04;-0.50;99.90
19385;DHT22;9828;54.122;17.974;2023-12-04T07:03:26;-0.50;99.90
19385;DHT22;9828;54.122;17.974;2023-12-04T07:08:51;-0.50;1.00
19385;DHT22;9828;54.122;17.974;2023-12-04T07:14:13;-0.50;1.00
19385;DHT22;9828;54.122;17.974;2023-12-04T07:19:35;-0.40;99.90
19385;DHT22;9828;54.122;17.974;2023-12-04T07:24:56;-0.30;10.30
19385;DHT22;9828;54.122;17.974;2023-12-04T07:30:18;-0.30;1.00
19385;DHT22;9828;54.122;17.974;2023-12-04T07:35:39;-0.40;1.00
19385;DHT22;9828;54.122;17.974;2023-12-04T07:41:01;-0.30;1.00
19385;DHT22;9828;54.122;17.974;2023-12-04T07:46:22;-0.30;1.00
19385;DHT22;9828;54.122;17.974;2023-12-04T07:51:43;-0.20;99.90
19385;DHT22;9828;54.122;17.974;2023-12-04T07:57:04;-0.20;99.90
19385;DHT22;9828;54.122;17.974;2023-12-04T08:02:26;-0.10;99.90
19385;DHT22;9828;54.122;17.974;2023-12-04T08:07:47;-0.10;1.00
19385;DHT22;9828;54.122;17.974;2023-12-04T08:13:09;-0.10;1.00
19385;DHT22;9828;54.122;17.974;2023-12-04T08:18:30;0.00;99.90
19385;DHT22;9828;54.122;17.974;2023-12-04T08:23:51;0.00;1.00
19385;DHT22;9828;54.122;17.974;2023-12-04T08:29:13;0.00;99.90
19385;DHT22;9828;54.122;17.974;2023-12-04T08:34:35;0.00;1.00
19385;DHT22;9828;54.122;17.974;2023-12-04T08:39:56;0.10;80.40
19385;DHT22;9828;54.122;17.974;2023-12-04T08:45:18;0.20;1.00
19385;DHT22;9828;54.122;17.974;2023-12-04T08:50:40;0.30;1.00
19385;DHT22;9828;54.122;17.974;2023-12-04T08:56:01;0.30;1.00
19385;DHT22;9828;54.122;17.974;2023-12-04T09:01:23;0.30;99.90
19385;DHT22;9828;54.122;17.974;2023-12-04T09:06:44;0.40;1.00
19385;DHT22;9828;54.122;17.974;2023-12-04T09:12:09;0.30;1.00
19385;DHT22;9828;54.122;17.974;2023-12-04T09:17:31;0.30;1.00
19385;DHT22;9828;54.122;17.974;2023-12-04T09:22:55;0.30;1.00
19385;DHT22;9828;54.122;17.974;2023-12-04T09:28:19;0.30;64.60
19385;DHT22;9828;54.122;17.974;2023-12-04T09:33:41;0.40;1.00
19385;DHT22;9828;54.122;17.974;2023-12-04T09:39:02;0.40;1.00
19385;DHT22;9828;54.122;17.974;2023-12-04T09:44:26;0.40;99.90
19385;DHT22;9828;54.122;17.974;2023-12-04T09:49:51;0.40;99.90
19385;DHT22;9828;54.122;17.974;2023-12-04T09:55:15;0.50;99.90
19385;DHT22;9828;54.122;17.974;2023-12-04T10:00:37;0.60;99.90
19385;DHT22;9828;54.122;17.974;2023-12-04T10:05:58;0.60;1.00
19385;DHT22;9828;54.122;17.974;2023-12-04T10:11:20;0.70;1.00
19385;DHT22;9828;54.122;17.974;2023-12-04T10:16:41;0.80;99.90
19385;DHT22;9828;54.122;17.974;2023-12-04T10:22:02;0.80;99.90
19385;DHT22;9828;54.122;17.974;2023-12-04T10:27:26;0.70;99.90
19385;DHT22;9828;54.122;17.974;2023-12-04T10:32:47;0.80;99.90
19385;DHT22;9828;54.122;17.974;2023-12-04T10:38:08;0.80;99.90
19385;DHT22;9828;54.122;17.974;2023-12-04T10:43:32;1.00;1.00
19385;DHT22;9828;54.122;17.974;2023-12-04T10:48:53;1.10;1.00
19385;DHT22;9828;54.122;17.974;2023-12-04T10:54:15;1.10;99.90
19385;DHT22;9828;54.122;17.974;2023-12-04T10:59:38;1.20;99.90
19385;DHT22;9828;54.122;17.974;2023-12-04T11:05:10;1.30;99.90
19385;DHT22;9828;54.122;17.974;2023-12-04T11:10:44;1.50;99.90
19385;DHT22;9828;54.122;17.974;2023-12-04T11:21:32;1.60;20.70
19385;DHT22;9828;54.122;17.974;2023-12-04T11:26:55;1.60;13.30
19385;DHT22;9828;54.122;17.974;2023-12-04T11:32:17;1.50;99.90
19385;DHT22;9828;54.122;17.974;2023-12-04T11:37:39;1.50;1.00
19385;DHT22;9828;54.122;17.974;2023-12-04T11:43:00;1.30;48.00
19385;DHT22;9828;54.122;17.974;2023-12-04T11:48:23;1.10;99.90
19385;DHT22;9828;54.122;17.974;2023-12-04T11:53:44;1.10;1.00
19385;DHT22;9828;54.122;17.974;2023-12-04T11:59:07;1.10;1.00
19385;DHT22;9828;54.122;17.974;2023-12-04T12:04:29;1.20;99.90
19385;DHT22;9828;54.122;17.974;2023-12-04T12:09:50;1.20;1.00
19385;DHT22;9828;54.122;17.974;2023-12-04T12:15:12;1.10;1.00
19385;DHT22;9828;54.122;17.974;2023-12-04T12:20:36;1.10;1.00
19385;DHT22;9828;54.122;17.974;2023-12-04T12:25:58;1.00;1.00
19385;DHT22;9828;54.122;17.974;2023-12-04T12:31:22;1.00;1.00
19385;DHT22;9828;54.122;17.974;2023-12-04T12:36:44;0.80;1.00
19385;DHT22;9828;54.122;17.974;2023-12-04T12:42:06;0.90;1.00
19385;DHT22;9828;54.122;17.974;2023-12-04T12:47:27;0.90;1.00
19385;DHT22;9828;54.122;17.974;2023-12-04T12:52:49;0.90;1.00
19385;DHT22;9828;54.122;17.974;2023-12-04T12:58:10;0.80;1.00
19385;DHT22;9828;54.122;17.974;2023-12-04T13:03:31;0.90;1.00
19385;DHT22;9828;54.122;17.974;2023-12-04T13:08:53;0.80;1.00
19385;DHT22;9828;54.122;17.974;2023-12-04T13:14:14;0.80;99.90
19385;DHT22;9828;54.122;17.974;2023-12-04T13:19:35;0.70;1.00
19385;DHT22;9828;54.122;17.974;2023-12-04T13:24:57;0.70;1.00
19385;DHT22;9828;54.122;17.974;2023-12-04T13:30:18;0.70;1.00
19385;DHT22;9828;54.122;17.974;2023-12-04T13:35:41;0.60;1.00
19385;DHT22;9828;54.122;17.974;2023-12-04T13:41:02;0.60;99.90
19385;DHT22;9828;54.122;17.974;2023-12-04T13:46:49;0.60;99.90
19385;DHT22;9828;54.122;17.974;2023-12-04T13:52:10;0.60;79.60
19385;DHT22;9828;54.122;17.974;2023-12-04T13:57:31;0.50;99.90
19385;DHT22;9828;54.122;17.974;2023-12-04T14:03:04;0.50;99.90
19385;DHT22;9828;54.122;17.974;2023-12-04T14:08:27;0.40;5.80
19385;DHT22;9828;54.122;17.974;2023-12-04T14:13:48;0.30;1.00
19385;DHT22;9828;54.122;17.974;2023-12-04T14:19:09;0.20;1.00
19385;DHT22;9828;54.122;17.974;2023-12-04T14:24:30;0.10;1.00
19385;DHT22;9828;54.122;17.974;2023-12-04T14:29:53;0.10;1.00
19385;DHT22;9828;54.122;17.974;2023-12-04T14:35:14;0.10;1.00
19385;DHT22;9828;54.122;17.974;2023-12-04T14:40:35;-0.10;1.00
19385;DHT22;9828;54.122;17.974;2023-12-04T14:45:57;0.00;99.90
19385;DHT22;9828;54.122;17.974;2023-12-04T14:51:18;0.00;99.90
19385;DHT22;9828;54.122;17.974;2023-12-04T14:56:42;-0.10;99.90
19385;DHT22;9828;54.122;17.974;2023-12-04T15:02:24;-0.30;1.00
19385;DHT22;9828;54.122;17.974;2023-12-04T15:08:10;-0.30;99.90
19385;DHT22;9828;54.122;17.974;2023-12-04T15:13:38;-0.40;1.00
19385;DHT22;9828;54.122;17.974;2023-12-04T15:19:18;-0.40;90.10
19385;DHT22;9828;54.122;17.974;2023-12-04T15:24:56;-0.40;1.00
19385;DHT22;9828;54.122;17.974;2023-12-04T15:30:17;-0.30;1.00
19385;DHT22;9828;54.122;17.974;2023-12-04T15:35:38;-0.30;92.70
19385;DHT22;9828;54.122;17.974;2023-12-04T15:41:00;-0.30;53.70
19385;DHT22;9828;54.122;17.974;2023-12-04T15:46:22;-0.30;1.00
19385;DHT22;9828;54.122;17.974;2023-12-04T15:51:44;-0.30;1.00
19385;DHT22;9828;54.122;17.974;2023-12-04T15:57:05;-0.30;99.90
19385;DHT22;9828;54.122;17.974;2023-12-04T16:02:26;-0.20;99.90
19385;DHT22;9828;54.122;17.974;2023-12-04T16:07:48;-0.20;1.00
19385;DHT22;9828;54.122;17.974;2023-12-04T16:13:12;-0.10;1.00
19385;DHT22;9828;54.122;17.974;2023-12-04T16:18:33;-0.30;99.90
19385;DHT22;9828;54.122;17.974;2023-12-04T16:23:54;-0.30;1.00
19385;DHT22;9828;54.122;17.974;2023-12-04T16:29:18;-0.20;1.00
19385;DHT22;9828;54.122;17.974;2023-12-04T16:34:40;-0.30;1.00
19385;DHT22;9828;54.122;17.974;2023-12-04T16:40:02;-0.40;99.90
19385;DHT22;9828;54.122;17.974;2023-12-04T16:45:24;-0.50;1.00
19385;DHT22;9828;54.122;17.974;2023-12-04T16:50:45;-0.40;99.90
19385;DHT22;9828;54.122;17.974;2023-12-04T16:56:12;-0.60;1.00
19385;DHT22;9828;54.122;17.974;2023-12-04T17:01:34;-0.50;1.00
19385;DHT22;9828;54.122;17.974;2023-12-04T17:06:55;-0.50;99.90
19385;DHT22;9828;54.122;17.974;2023-12-04T17:12:17;-0.40;1.00
19385;DHT22;9828;54.122;17.974;2023-12-04T17:17:39;-0.60;1.00
19385;DHT22;9828;54.122;17.974;2023-12-04T17:23:00;-0.80;99.90
19385;DHT22;9828;54.122;17.974;2023-12-04T17:28:22;-0.90;99.90
19385;DHT22;9828;54.122;17.974;2023-12-04T17:33:43;-1.10;57.20
19385;DHT22;9828;54.122;17.974;2023-12-04T17:39:04;-1.00;1.00
19385;DHT22;9828;54.122;17.974;2023-12-04T17:44:28;-1.10;99.90
19385;DHT22;9828;54.122;17.974;2023-12-04T17:49:49;-1.30;99.90
19385;DHT22;9828;54.122;17.974;2023-12-04T17:55:10;-1.40;1.00
19385;DHT22;9828;54.122;17.974;2023-12-04T18:00:32;-1.40;99.90
19385;DHT22;9828;54.122;17.974;2023-12-04T18:05:53;-1.50;1.00
19385;DHT22;9828;54.122;17.974;2023-12-04T18:11:14;-1.50;98.50
19385;DHT22;9828;54.122;17.974;2023-12-04T18:16:36;-1.30;99.90
19385;DHT22;9828;54.122;17.974;2023-12-04T18:21:57;-1.40;99.90
19385;DHT22;9828;54.122;17.974;2023-12-04T18:27:18;-1.50;1.00
19385;DHT22;9828;54.122;17.974;2023-12-04T18:32:40;-1.60;1.00
19385;DHT22;9828;54.122;17.974;2023-12-04T18:38:17;-1.50;1.00
19385;DHT22;9828;54.122;17.974;2023-12-04T18:43:39;-1.60;99.90
19385;DHT22;9828;54.122;17.974;2023-12-04T18:49:02;-1.70;1.00
19385;DHT22;9828;54.122;17.974;2023-12-04T18:54:23;-1.80;1.00
19385;DHT22;9828;54.122;17.974;2023-12-04T18:59:44;-1.90;1.00
19385;DHT22;9828;54.122;17.974;2023-12-04T19:05:05;-2.00;1.00
19385;DHT22;9828;54.122;17.974;2023-12-04T19:10:28;-1.90;99.90
19385;DHT22;9828;54.122;17.974;2023-12-04T19:15:50;-2.00;1.00
19385;DHT22;9828;54.122;17.974;2023-12-04T19:21:11;-1.90;1.00
19385;DHT22;9828;54.122;17.974;2023-12-04T19:26:32;-2.10;99.90
19385;DHT22;9828;54.122;17.974;2023-12-04T19:31:53;-2.10;1.00
19385;DHT22;9828;54.122;17.974;2023-12-04T19:37:15;-2.10;1.00
19385;DHT22;9828;54.122;17.974;2023-12-04T19:42:37;-2.20;99.90
19385;DHT22;9828;54.122;17.974;2023-12-04T19:47:58;-2.20;1.00
19385;DHT22;9828;54.122;17.974;2023-12-04T19:53:19;-2.20;1.00
19385;DHT22;9828;54.122;17.974;2023-12-04T19:58:40;-2.30;96.60
19385;DHT22;9828;54.122;17.974;2023-12-04T20:04:02;-2.40;99.90
19385;DHT22;9828;54.122;17.974;2023-12-04T20:14:48;-2.60;1.00
19385;DHT22;9828;54.122;17.974;2023-12-04T20:20:10;-2.50;99.90
19385;DHT22;9828;54.122;17.974;2023-12-04T20:25:32;-2.40;1.00
19385;DHT22;9828;54.122;17.974;2023-12-04T20:30:53;-2.60;1.00
19385;DHT22;9828;54.122;17.974;2023-12-04T20:36:15;-2.70;99.90
19385;DHT22;9828;54.122;17.974;2023-12-04T20:41:36;-2.70;99.90
19385;DHT22;9828;54.122;17.974;2023-12-04T20:46:57;-2.90;37.50
19385;DHT22;9828;54.122;17.974;2023-12-04T20:52:20;-3.00;1.00
19385;DHT22;9828;54.122;17.974;2023-12-04T20:57:41;-3.00;99.90
19385;DHT22;9828;54.122;17.974;2023-12-04T21:03:02;-3.30;47.50
19385;DHT22;9828;54.122;17.974;2023-12-04T21:08:24;-3.40;99.90
19385;DHT22;9828;54.122;17.974;2023-12-04T21:13:45;-3.50;1.00
19385;DHT22;9828;54.122;17.974;2023-12-04T21:19:06;-3.60;1.00
19385;DHT22;9828;54.122;17.974;2023-12-04T21:24:30;-3.70;99.90
19385;DHT22;9828;54.122;17.974;2023-12-04T21:29:52;-3.90;99.90
19385;DHT22;9828;54.122;17.974;2023-12-04T21:35:13;-4.00;1.00
19385;DHT22;9828;54.122;17.974;2023-12-04T21:40:35;-4.10;99.90
19385;DHT22;9828;54.122;17.974;2023-12-04T21:45:56;-4.10;1.00
19385;DHT22;9828;54.122;17.974;2023-12-04T21:51:17;-4.00;99.90
19385;DHT22;9828;54.122;17.974;2023-12-04T21:56:38;-4.00;99.90
19385;DHT22;9828;54.122;17.974;2023-12-04T22:01:59;-3.90;1.00
19385;DHT22;9828;54.122;17.974;2023-12-04T22:07:20;-4.00;1.00
19385;DHT22;9828;54.122;17.974;2023-12-04T22:12:42;-4.00;99.90
19385;DHT22;9828;54.122;17.974;2023-12-04T22:18:03;-4.00;1.00
19385;DHT22;9828;54.122;17.974;2023-12-04T22:23:25;-4.00;1.00
19385;DHT22;9828;54.122;17.974;2023-12-04T22:28:46;-4.00;1.00
19385;DHT22;9828;54.122;17.974;2023-12-04T22:34:07;-4.00;1.00
19385;DHT22;9828;54.122;17.974;2023-12-04T22:39:28;-4.20;1.00
19385;DHT22;9828;54.122;17.974;2023-12-04T22:44:49;-4.20;1.00
19385;DHT22;9828;54.122;17.974;2023-12-04T22:50:11;-4.10;1.00
19385;DHT22;9828;54.122;17.974;2023-12-04T22:55:32;-4.10;1.00
19385;DHT22;9828;54.122;17.974;2023-12-04T23:00:53;-4.00;4.80
19385;DHT22;9828;54.122;17.974;2023-12-04T23:06:16;-4.10;1.00
19385;DHT22;9828;54.122;17.974;2023-12-04T23:11:37;-4.30;99.90
19385;DHT22;9828;54.122;17.974;2023-12-04T23:16:58;-4.30;99.90
19385;DHT22;9828;54.122;17.974;2023-12-04T23:22:20;-4.30;34.10
19385;DHT22;9828;54.122;17.974;2023-12-04T23:27:42;-4.50;6.40
19385;DHT22;9828;54.122;17.974;2023-12-04T23:33:02;-4.20;1.00
19385;DHT22;9828;54.122;17.974;2023-12-04T23:38:24;-4.10;1.00
19385;DHT22;9828;54.122;17.974;2023-12-04T23:43:45;-4.10;1.00
19385;DHT22;9828;54.122;17.974;2023-12-04T23:49:07;-4.10;99.90
19385;DHT22;9828;54.122;17.974;2023-12-04T23:54:29;-4.00;1.00
19385;DHT22;9828;54.122;17.974;2023-12-04T23:59:51;-4.10;99.90
